createdAt,value
2017-08-20T00:01:08.483Z,12.50
2017-08-20T00:03:35.934Z,12.50
2017-08-20T00:06:03.393Z,12.60
2017-08-20T00:08:30.849Z,12.50
2017-08-20T00:10:58.311Z,12.50
2017-08-20T00:13:25.764Z,12.40
2017-08-20T00:15:53.346Z,12.30
2017-08-20T00:18:20.802Z,12.20
2017-08-20T00:20:48.258Z,12.20
2017-08-20T00:23:15.730Z,12.20
2017-08-20T00:25:43.978Z,12.20
2017-08-20T00:28:11.437Z,12.20
2017-08-20T00:30:38.893Z,12.20
2017-08-20T00:33:06.453Z,12.20
2017-08-20T00:35:33.933Z,12.20
2017-08-20T00:38:01.375Z,12.10
2017-08-20T00:40:28.935Z,12.00
2017-08-20T00:42:56.390Z,12.00
2017-08-20T00:45:23.945Z,11.90
2017-08-20T00:47:51.502Z,11.90
2017-08-20T00:50:18.959Z,12.00
2017-08-20T00:52:46.512Z,12.00
2017-08-20T00:55:13.977Z,12.00
2017-08-20T00:57:41.446Z,11.90
2017-08-20T01:00:08.902Z,11.90
2017-08-20T01:02:36.357Z,11.80
2017-08-20T01:05:03.814Z,11.90
2017-08-20T01:07:31.358Z,12.00
2017-08-20T01:09:58.827Z,12.10
2017-08-20T01:12:26.285Z,12.20
2017-08-20T01:14:53.738Z,12.30
2017-08-20T01:17:21.190Z,12.30
2017-08-20T01:19:48.733Z,12.30
2017-08-20T01:22:16.199Z,12.30
2017-08-20T01:24:43.655Z,12.30
2017-08-20T01:27:11.216Z,12.30
2017-08-20T01:29:38.670Z,12.30
2017-08-20T01:32:06.140Z,12.30
2017-08-20T01:34:33.683Z,12.30
2017-08-20T01:37:01.139Z,12.30
2017-08-20T01:39:28.693Z,12.40
2017-08-20T01:41:56.259Z,12.40
2017-08-20T01:44:23.715Z,12.30
2017-08-20T01:46:51.171Z,12.30
2017-08-20T01:49:18.635Z,12.30
2017-08-20T01:51:46.082Z,12.30
2017-08-20T01:54:13.642Z,12.30
2017-08-20T01:56:41.095Z,12.30
2017-08-20T01:59:08.657Z,12.30
2017-08-20T02:01:36.209Z,12.30
2017-08-20T02:04:03.675Z,12.30
2017-08-20T02:06:31.127Z,12.30
2017-08-20T02:08:58.582Z,12.30
2017-08-20T02:11:26.141Z,12.30
2017-08-20T02:13:53.597Z,12.50
2017-08-20T02:16:21.163Z,12.60
2017-08-20T02:18:48.722Z,12.70
2017-08-20T02:21:16.170Z,12.90
2017-08-20T02:23:43.620Z,12.80
2017-08-20T02:26:11.095Z,12.80
2017-08-20T02:28:38.537Z,12.80
2017-08-20T02:31:06.100Z,12.60
2017-08-20T02:33:33.553Z,12.50
2017-08-20T02:36:01.027Z,12.30
2017-08-20T02:38:28.482Z,12.40
2017-08-20T02:40:55.945Z,12.30
2017-08-20T02:43:23.494Z,12.40
2017-08-20T02:45:50.974Z,12.40
2017-08-20T02:48:18.502Z,12.50
2017-08-20T02:50:45.958Z,12.70
2017-08-20T02:53:13.409Z,12.80
2017-08-20T02:55:40.969Z,12.80
2017-08-20T02:58:08.425Z,12.80
2017-08-20T03:00:35.882Z,12.70
2017-08-20T03:03:03.334Z,12.80
2017-08-20T03:05:30.796Z,12.70
2017-08-20T03:07:58.366Z,12.60
2017-08-20T03:10:25.842Z,12.50
2017-08-20T03:12:54.078Z,12.40
2017-08-20T03:15:21.532Z,12.30
2017-08-20T03:17:49.002Z,12.30
2017-08-20T03:20:16.448Z,12.30
2017-08-20T03:22:43.908Z,12.20
2017-08-20T03:25:11.363Z,12.30
2017-08-20T03:27:38.931Z,12.30
2017-08-20T03:30:06.410Z,12.50
2017-08-20T03:32:34.652Z,12.70
2017-08-20T03:35:02.127Z,12.70
2017-08-20T03:37:29.593Z,12.80
2017-08-20T03:39:57.857Z,12.80
2017-08-20T03:42:25.313Z,12.80
2017-08-20T03:44:52.861Z,12.80
2017-08-20T03:47:20.331Z,12.80
2017-08-20T03:49:47.773Z,12.80
2017-08-20T03:52:15.232Z,12.80
2017-08-20T03:54:42.789Z,12.70
2017-08-20T03:57:10.269Z,12.70
2017-08-20T03:59:38.538Z,12.30
2017-08-20T04:02:05.986Z,12.30
2017-08-20T04:04:33.445Z,12.20
2017-08-20T04:07:00.998Z,12.10
2017-08-20T04:09:28.462Z,12.00
2017-08-20T04:11:55.917Z,12.00
2017-08-20T04:14:23.373Z,12.20
2017-08-20T04:16:50.838Z,12.40
2017-08-20T04:19:18.290Z,12.50
2017-08-20T04:21:45.741Z,12.60
2017-08-20T04:24:13.198Z,12.80
2017-08-20T04:26:40.650Z,13.00
2017-08-20T04:29:08.123Z,13.00
2017-08-20T04:31:36.449Z,13.10
2017-08-20T04:34:03.937Z,13.10
2017-08-20T04:36:31.494Z,13.30
2017-08-20T04:38:59.061Z,13.40
2017-08-20T04:41:26.614Z,13.40
2017-08-20T04:43:54.094Z,13.40
2017-08-20T04:46:22.308Z,13.30
2017-08-20T04:48:49.771Z,13.20
2017-08-20T04:51:17.233Z,13.30
2017-08-20T04:53:44.686Z,13.50
2017-08-20T04:56:12.168Z,13.50
2017-08-20T04:58:39.725Z,13.60
2017-08-20T05:01:07.286Z,13.60
2017-08-20T05:03:34.841Z,13.60
2017-08-20T05:06:02.302Z,13.50
2017-08-20T05:08:29.758Z,13.50
2017-08-20T05:10:57.214Z,13.60
2017-08-20T05:13:24.665Z,13.60
2017-08-20T05:15:52.234Z,13.60
2017-08-20T05:18:19.685Z,13.80
2017-08-20T05:20:47.247Z,13.80
2017-08-20T05:23:14.686Z,13.90
2017-08-20T05:25:43.565Z,14.00
2017-08-20T05:28:11.022Z,14.10
2017-08-20T05:30:38.477Z,14.10
2017-08-20T05:33:05.961Z,14.20
2017-08-20T05:35:33.418Z,14.40
2017-08-20T05:38:00.870Z,14.50
2017-08-20T05:40:28.335Z,14.70
2017-08-20T05:42:55.789Z,14.80
2017-08-20T05:45:23.246Z,14.90
2017-08-20T05:47:50.707Z,15.10
2017-08-20T05:50:18.164Z,15.20
2017-08-20T05:52:45.633Z,15.30
2017-08-20T05:55:13.859Z,15.40
2017-08-20T05:57:41.319Z,15.40
2017-08-20T06:00:08.773Z,15.40
2017-08-20T06:02:36.230Z,15.50
2017-08-20T06:05:03.677Z,15.70
2017-08-20T06:07:31.130Z,16.20
2017-08-20T06:09:58.643Z,17.00
2017-08-20T06:12:26.102Z,17.50
2017-08-20T06:14:53.554Z,17.30
2017-08-20T06:17:21.008Z,16.90
2017-08-20T06:19:48.453Z,16.60
2017-08-20T06:22:16.014Z,17.10
2017-08-20T06:24:43.473Z,18.20
2017-08-20T06:27:10.929Z,18.30
2017-08-20T06:29:38.493Z,18.10
2017-08-20T06:32:05.969Z,17.70
2017-08-20T06:34:34.190Z,17.40
2017-08-20T06:37:01.637Z,17.40
2017-08-20T06:39:29.952Z,17.20
2017-08-20T06:41:57.396Z,17.30
2017-08-20T06:44:24.858Z,17.30
2017-08-20T06:46:52.311Z,17.20
2017-08-20T06:49:19.769Z,17.40
2017-08-20T06:51:47.216Z,17.40
2017-08-20T06:54:14.675Z,17.30
2017-08-20T06:56:42.122Z,17.20
2017-08-20T06:59:09.616Z,17.40
2017-08-20T07:01:37.068Z,17.30
2017-08-20T07:04:04.542Z,17.30
2017-08-20T07:06:31.990Z,17.30
2017-08-20T07:08:59.533Z,17.40
2017-08-20T07:11:26.990Z,17.40
2017-08-20T07:13:54.450Z,17.50
2017-08-20T07:16:22.014Z,17.60
2017-08-20T07:18:49.472Z,17.60
2017-08-20T07:21:17.626Z,17.70
2017-08-20T07:23:45.193Z,17.70
2017-08-20T07:26:12.651Z,17.70
2017-08-20T07:28:40.215Z,17.70
2017-08-20T07:31:07.662Z,17.70
2017-08-20T07:33:35.124Z,17.80
2017-08-20T07:36:02.594Z,17.70
2017-08-20T07:38:30.045Z,17.50
2017-08-20T07:40:57.604Z,17.50
2017-08-20T07:43:25.071Z,17.50
2017-08-20T07:45:53.540Z,17.60
2017-08-20T07:48:21.953Z,17.80
2017-08-20T07:50:49.411Z,17.90
2017-08-20T07:53:16.856Z,17.80
2017-08-20T07:55:45.085Z,17.80
2017-08-20T07:58:12.542Z,17.80
2017-08-20T08:00:40.009Z,17.70
2017-08-20T08:03:07.445Z,17.70
2017-08-20T08:05:34.926Z,17.90
2017-08-20T08:08:03.233Z,17.90
2017-08-20T08:10:31.457Z,18.10
2017-08-20T08:12:58.905Z,18.10
2017-08-20T08:15:26.379Z,18.20
2017-08-20T08:17:54.813Z,18.30
2017-08-20T08:20:22.328Z,18.20
2017-08-20T08:22:49.825Z,18.30
2017-08-20T08:25:18.033Z,18.40
2017-08-20T08:27:45.502Z,18.40
2017-08-20T08:30:12.961Z,18.50
2017-08-20T08:32:40.417Z,18.40
2017-08-20T08:35:07.873Z,18.40
2017-08-20T08:37:35.346Z,18.30
2017-08-20T08:40:02.806Z,18.40
2017-08-20T08:42:30.269Z,18.20
2017-08-20T08:44:57.828Z,18.20
2017-08-20T08:47:25.346Z,18.30
2017-08-20T08:49:52.840Z,18.30
2017-08-20T08:52:20.303Z,18.20
2017-08-20T08:54:47.986Z,18.50
2017-08-20T08:57:15.527Z,18.70
2017-08-20T08:59:43.082Z,18.80
2017-08-20T09:02:10.639Z,18.90
2017-08-20T09:04:39.021Z,18.70
2017-08-20T09:07:06.570Z,18.90
2017-08-20T09:09:34.026Z,19.00
2017-08-20T09:12:01.586Z,19.30
2017-08-20T09:14:29.043Z,19.30
2017-08-20T09:16:56.592Z,19.40
2017-08-20T09:19:24.153Z,19.10
2017-08-20T09:21:51.605Z,19.50
2017-08-20T09:24:19.057Z,19.80
2017-08-20T09:26:46.513Z,19.70
2017-08-20T09:29:13.969Z,19.70
2017-08-20T09:31:41.429Z,19.70
2017-08-20T09:34:08.886Z,19.50
2017-08-20T09:36:36.465Z,19.30
2017-08-20T09:39:03.917Z,19.10
2017-08-20T09:41:31.366Z,18.80
2017-08-20T09:43:58.938Z,18.60
2017-08-20T09:46:26.395Z,18.40
2017-08-20T09:48:53.849Z,18.60
2017-08-20T09:51:21.305Z,18.50
2017-08-20T09:53:48.858Z,18.90
2017-08-20T09:56:16.314Z,19.60
2017-08-20T09:58:43.773Z,20.00
2017-08-20T10:01:11.230Z,20.10
2017-08-20T10:03:38.685Z,20.00
2017-08-20T10:06:06.233Z,20.00
2017-08-20T10:08:33.694Z,19.70
2017-08-20T10:11:01.145Z,19.90
2017-08-20T10:13:28.697Z,19.70
2017-08-20T10:15:56.157Z,19.60
2017-08-20T10:18:23.597Z,19.40
2017-08-20T10:20:51.081Z,19.20
2017-08-20T10:23:18.533Z,19.10
2017-08-20T10:25:45.998Z,18.90
2017-08-20T10:28:13.547Z,19.00
2017-08-20T10:30:41.009Z,19.40
2017-08-20T10:33:08.461Z,19.40
2017-08-20T10:35:35.913Z,19.80
2017-08-20T10:38:03.363Z,20.30
2017-08-20T10:40:30.817Z,20.50
2017-08-20T10:42:58.262Z,20.00
2017-08-20T10:45:25.717Z,20.10
2017-08-20T10:47:53.170Z,19.80
2017-08-20T10:50:20.647Z,19.90
2017-08-20T10:52:48.218Z,19.90
2017-08-20T10:55:15.673Z,20.20
2017-08-20T10:57:43.128Z,20.40
2017-08-20T11:00:10.593Z,20.50
2017-08-20T11:02:38.061Z,20.30
2017-08-20T11:05:05.508Z,20.30
2017-08-20T11:07:33.065Z,20.70
2017-08-20T11:10:00.614Z,21.00
2017-08-20T11:12:28.179Z,21.00
2017-08-20T11:14:55.634Z,20.90
2017-08-20T11:17:23.085Z,21.00
2017-08-20T11:19:50.534Z,20.90
2017-08-20T11:22:17.994Z,21.20
2017-08-20T11:24:45.449Z,21.20
2017-08-20T11:27:12.914Z,21.40
2017-08-20T11:29:40.362Z,20.80
2017-08-20T11:32:07.821Z,21.00
2017-08-20T11:34:35.287Z,21.30
2017-08-20T11:37:02.766Z,21.50
2017-08-20T11:39:31.031Z,21.70
2017-08-20T11:41:58.474Z,21.70
2017-08-20T11:44:25.934Z,21.70
2017-08-20T11:46:53.395Z,21.50
2017-08-20T11:49:20.849Z,21.40
2017-08-20T11:51:48.310Z,21.40
2017-08-20T11:54:15.765Z,21.70
2017-08-20T11:56:43.222Z,21.90
2017-08-20T11:59:10.677Z,21.70
2017-08-20T12:01:38.121Z,21.20
2017-08-20T12:04:05.682Z,21.30
2017-08-20T12:06:33.253Z,21.60
2017-08-20T12:09:00.709Z,21.40
2017-08-20T12:11:28.164Z,21.10
2017-08-20T12:13:56.399Z,21.20
2017-08-20T12:16:23.880Z,21.20
2017-08-20T12:18:51.359Z,21.40
2017-08-20T12:21:18.806Z,21.10
2017-08-20T12:23:46.262Z,20.90
2017-08-20T12:26:13.717Z,20.90
2017-08-20T12:28:41.174Z,21.20
2017-08-20T12:31:08.629Z,21.50
2017-08-20T12:33:36.074Z,21.50
2017-08-20T12:36:03.530Z,21.30
2017-08-20T12:38:30.978Z,21.50
2017-08-20T12:40:58.446Z,22.00
2017-08-20T12:43:25.899Z,22.40
2017-08-20T12:45:53.461Z,22.50
2017-08-20T12:48:20.910Z,22.80
2017-08-20T12:50:48.357Z,22.50
2017-08-20T12:53:15.842Z,22.50
2017-08-20T12:55:43.298Z,22.20
2017-08-20T12:58:10.760Z,21.50
2017-08-20T13:00:38.215Z,21.10
2017-08-20T13:03:05.657Z,20.90
2017-08-20T13:05:33.127Z,20.70
2017-08-20T13:08:00.584Z,20.70
2017-08-20T13:10:28.037Z,21.00
2017-08-20T13:12:55.481Z,21.40
2017-08-20T13:15:23.041Z,21.40
2017-08-20T13:17:50.602Z,21.40
2017-08-20T13:20:18.050Z,21.50
2017-08-20T13:22:45.505Z,21.60
2017-08-20T13:25:12.953Z,21.60
2017-08-20T13:27:40.402Z,21.40
2017-08-20T13:30:07.880Z,21.60
2017-08-20T13:32:35.448Z,21.70
2017-08-20T13:35:02.907Z,21.90
2017-08-20T13:37:30.454Z,22.20
2017-08-20T13:39:57.905Z,22.20
2017-08-20T13:42:25.358Z,22.40
2017-08-20T13:44:52.833Z,22.50
2017-08-20T13:47:20.288Z,22.50
2017-08-20T13:49:47.724Z,21.70
2017-08-20T13:52:15.187Z,21.60
2017-08-20T13:54:42.629Z,21.20
2017-08-20T13:57:10.090Z,21.20
2017-08-20T13:59:37.566Z,21.30
2017-08-20T14:02:05.121Z,21.50
2017-08-20T14:04:32.585Z,21.40
2017-08-20T14:07:00.058Z,21.30
2017-08-20T14:09:28.319Z,21.40
2017-08-20T14:11:55.769Z,21.30
2017-08-20T14:14:23.228Z,21.50
2017-08-20T14:16:50.677Z,21.70
2017-08-20T14:19:18.134Z,21.70
2017-08-20T14:21:45.577Z,21.80
2017-08-20T14:24:13.058Z,21.80
2017-08-20T14:26:40.506Z,21.30
2017-08-20T14:29:07.961Z,20.90
2017-08-20T14:31:35.409Z,20.80
2017-08-20T14:34:02.866Z,21.20
2017-08-20T14:36:30.313Z,21.60
2017-08-20T14:38:57.781Z,21.70
2017-08-20T14:41:25.328Z,21.20
2017-08-20T14:43:52.781Z,21.10
2017-08-20T14:46:20.237Z,21.10
2017-08-20T14:48:47.689Z,21.00
2017-08-20T14:51:15.145Z,20.70
2017-08-20T14:53:42.602Z,20.50
2017-08-20T14:56:10.085Z,20.60
2017-08-20T14:58:37.537Z,20.70
2017-08-20T15:01:04.985Z,20.60
2017-08-20T15:03:32.450Z,20.80
2017-08-20T15:05:59.917Z,21.20
2017-08-20T15:08:27.353Z,21.10
2017-08-20T15:10:54.815Z,20.90
2017-08-20T15:13:22.292Z,20.60
2017-08-20T15:15:49.842Z,20.50
2017-08-20T15:18:17.285Z,20.40
2017-08-20T15:20:44.745Z,20.30
2017-08-20T15:23:12.201Z,20.30
2017-08-20T15:25:39.662Z,20.30
2017-08-20T15:28:07.221Z,20.50
2017-08-20T15:30:34.705Z,20.80
2017-08-20T15:33:02.929Z,20.80
2017-08-20T15:35:31.586Z,20.80
2017-08-20T15:37:59.483Z,20.70
2017-08-20T15:40:26.938Z,20.70
2017-08-20T15:42:54.399Z,20.70
2017-08-20T15:45:21.942Z,20.90
2017-08-20T15:47:49.441Z,20.80
2017-08-20T15:50:18.488Z,20.80
2017-08-20T15:52:45.929Z,20.90
2017-08-20T15:55:13.389Z,20.70
2017-08-20T15:57:40.845Z,20.50
2017-08-20T16:00:08.305Z,20.40
2017-08-20T16:02:35.826Z,20.60
2017-08-20T16:05:03.289Z,20.50
2017-08-20T16:07:31.533Z,20.50
2017-08-20T16:09:59.008Z,20.50
2017-08-20T16:12:26.479Z,20.50
2017-08-20T16:14:56.541Z,20.30
2017-08-20T16:17:23.969Z,20.30
2017-08-20T16:19:51.490Z,20.30
2017-08-20T16:22:18.950Z,20.10
2017-08-20T16:24:46.535Z,20.10
2017-08-20T16:27:14.781Z,20.10
2017-08-20T16:29:42.341Z,20.10
2017-08-20T16:32:09.798Z,19.90
2017-08-20T16:34:37.362Z,20.00
2017-08-20T16:37:04.909Z,20.10
2017-08-20T16:39:32.362Z,20.20
2017-08-20T16:41:59.846Z,20.20
2017-08-20T16:44:27.281Z,20.10
2017-08-20T16:46:54.837Z,19.90
2017-08-20T16:49:22.302Z,19.80
2017-08-20T16:51:49.766Z,19.70
2017-08-20T16:54:18.437Z,19.70
2017-08-20T16:56:45.918Z,19.40
2017-08-20T16:59:14.171Z,19.20
2017-08-20T17:01:41.630Z,19.10
2017-08-20T17:04:09.093Z,19.10
2017-08-20T17:06:36.566Z,19.20
2017-08-20T17:09:04.019Z,19.10
2017-08-20T17:11:31.493Z,19.00
2017-08-20T17:13:58.945Z,18.80
2017-08-20T17:16:27.198Z,18.70
2017-08-20T17:18:54.657Z,18.60
2017-08-20T17:21:22.111Z,18.70
2017-08-20T17:23:54.440Z,18.60
2017-08-20T17:26:21.881Z,18.70
2017-08-20T17:28:50.723Z,18.70
2017-08-20T17:31:18.173Z,18.60
2017-08-20T17:33:45.630Z,18.60
2017-08-20T17:36:13.084Z,18.60
2017-08-20T17:38:40.554Z,18.50
2017-08-20T17:41:09.796Z,18.40
2017-08-20T17:43:37.245Z,18.40
2017-08-20T17:46:04.774Z,18.30
2017-08-20T17:48:32.850Z,18.20
2017-08-20T17:51:00.398Z,18.20
2017-08-20T17:53:27.861Z,18.10
2017-08-20T17:55:56.080Z,18.00
2017-08-20T17:58:23.578Z,17.90
2017-08-20T18:00:51.037Z,18.00
2017-08-20T18:03:18.600Z,18.00
2017-08-20T18:05:46.058Z,17.90
2017-08-20T18:08:13.514Z,17.80
2017-08-20T18:10:40.969Z,17.70
2017-08-20T18:13:08.445Z,17.60
2017-08-20T18:15:36.690Z,17.40
2017-08-20T18:18:04.137Z,17.40
2017-08-20T18:20:31.601Z,17.20
2017-08-20T18:22:59.062Z,17.10
2017-08-20T18:25:26.557Z,16.90
2017-08-20T18:27:54.014Z,17.00
2017-08-20T18:30:22.237Z,16.70
2017-08-20T18:32:49.703Z,16.70
2017-08-20T18:35:19.316Z,16.50
2017-08-20T18:37:46.793Z,16.40
2017-08-20T18:40:14.253Z,16.20
2017-08-20T18:42:42.506Z,16.00
2017-08-20T18:45:09.969Z,15.90
2017-08-20T18:47:37.741Z,15.80
2017-08-20T18:50:05.282Z,15.70
2017-08-20T18:52:32.743Z,15.60
2017-08-20T18:55:00.198Z,15.50
2017-08-20T18:57:27.759Z,15.40
2017-08-20T18:59:55.222Z,15.30
2017-08-20T19:02:22.673Z,15.30
2017-08-20T19:04:50.261Z,15.20
2017-08-20T19:07:18.637Z,15.10
2017-08-20T19:09:46.893Z,14.90
2017-08-20T19:12:14.752Z,14.90
2017-08-20T19:14:44.325Z,14.80
2017-08-20T19:17:12.582Z,14.80
2017-08-20T19:19:40.042Z,14.70
2017-08-20T19:22:10.287Z,14.60
2017-08-20T19:24:37.743Z,14.60
2017-08-20T19:27:06.245Z,14.50
2017-08-20T19:29:34.104Z,14.40
2017-08-20T19:32:04.442Z,14.40
2017-08-20T19:34:31.922Z,14.30
2017-08-20T19:36:59.390Z,14.30
2017-08-20T19:39:26.847Z,14.20
2017-08-20T19:41:56.089Z,14.20
2017-08-20T19:44:24.580Z,14.10
2017-08-20T19:46:54.445Z,14.10
2017-08-20T19:49:23.441Z,14.10
2017-08-20T19:51:50.931Z,14.20
2017-08-20T19:54:18.389Z,14.20
2017-08-20T19:56:45.846Z,14.10
2017-08-20T19:59:13.305Z,14.00
2017-08-20T20:01:40.758Z,13.90
2017-08-20T20:04:08.229Z,13.80
2017-08-20T20:06:35.688Z,13.70
2017-08-20T20:09:03.246Z,13.60
2017-08-20T20:11:30.702Z,13.60
2017-08-20T20:13:58.161Z,13.50
2017-08-20T20:16:26.281Z,13.40
2017-08-20T20:18:53.736Z,13.40
2017-08-20T20:21:21.197Z,13.30
2017-08-20T20:23:48.662Z,13.30
2017-08-20T20:26:23.348Z,13.30
2017-08-20T20:28:51.578Z,13.20
2017-08-20T20:31:19.025Z,13.20
2017-08-20T20:33:46.482Z,13.10
2017-08-20T20:36:13.965Z,13.00
2017-08-20T20:38:41.422Z,13.00
2017-08-20T20:41:08.874Z,13.00
2017-08-20T20:43:36.330Z,12.90
2017-08-20T20:46:03.782Z,12.90
2017-08-20T20:48:31.241Z,12.80
2017-08-20T20:50:58.689Z,12.80
2017-08-20T20:53:26.162Z,12.80
2017-08-20T20:55:53.718Z,12.80
2017-08-20T20:58:21.198Z,12.70
2017-08-20T21:00:49.424Z,12.60
2017-08-20T21:03:16.886Z,12.50
2017-08-20T21:05:44.349Z,12.50
2017-08-20T21:08:11.802Z,12.40
2017-08-20T21:10:39.256Z,12.50
2017-08-20T21:13:06.717Z,12.50
2017-08-20T21:15:34.173Z,12.40
2017-08-20T21:18:01.634Z,12.40
2017-08-20T21:20:29.115Z,12.30
2017-08-20T21:22:56.566Z,12.20
2017-08-20T21:25:24.874Z,12.10
2017-08-20T21:27:53.081Z,11.90
2017-08-20T21:30:20.576Z,11.90
2017-08-20T21:32:48.021Z,11.90
2017-08-20T21:35:15.477Z,11.90
2017-08-20T21:37:43.042Z,11.90
2017-08-20T21:40:10.597Z,11.90
2017-08-20T21:42:38.154Z,11.90
2017-08-20T21:45:10.301Z,11.80
2017-08-20T21:47:37.759Z,11.80
2017-08-20T21:50:05.236Z,11.70
2017-08-20T21:52:32.690Z,11.60
2017-08-20T21:55:00.142Z,11.70
2017-08-20T21:57:27.597Z,11.80
2017-08-20T22:03:13.878Z,11.70
2017-08-20T22:05:41.330Z,11.60
2017-08-20T22:08:08.778Z,11.60
2017-08-20T22:10:36.229Z,11.50
2017-08-20T22:13:03.677Z,11.50
2017-08-20T22:15:31.133Z,11.40
2017-08-20T22:17:58.581Z,11.40
2017-08-20T22:20:26.049Z,11.40
2017-08-20T22:22:53.498Z,11.50
2017-08-20T22:25:20.955Z,11.50
2017-08-20T22:27:48.408Z,11.50
2017-08-20T22:30:15.890Z,11.50
2017-08-20T22:32:43.337Z,11.50
2017-08-20T22:35:10.786Z,11.50
2017-08-20T22:37:38.309Z,11.70
2017-08-20T22:40:05.869Z,11.90
2017-08-20T22:42:33.339Z,11.90
2017-08-20T22:45:00.800Z,11.90
2017-08-20T22:47:28.274Z,11.80
2017-08-20T22:49:55.736Z,11.80
2017-08-20T22:52:23.253Z,11.80
2017-08-20T22:54:50.706Z,12.10
2017-08-20T22:57:18.168Z,12.10
2017-08-20T22:59:45.728Z,12.10
2017-08-20T23:02:13.199Z,12.10
2017-08-20T23:04:40.744Z,12.00
2017-08-20T23:07:08.205Z,12.00
2017-08-20T23:09:35.666Z,11.90
2017-08-20T23:12:03.120Z,11.90
2017-08-20T23:14:30.578Z,11.90
2017-08-20T23:16:58.034Z,12.00
2017-08-20T23:19:25.489Z,12.10
2017-08-20T23:21:52.946Z,12.30
2017-08-20T23:24:20.407Z,12.30
2017-08-20T23:26:47.949Z,12.30
2017-08-20T23:29:15.410Z,12.20
2017-08-20T23:31:42.866Z,12.20
2017-08-20T23:34:10.321Z,12.40
2017-08-20T23:36:37.779Z,12.20
2017-08-20T23:39:05.237Z,12.10
2017-08-20T23:41:32.698Z,12.00
2017-08-20T23:44:00.153Z,12.10
2017-08-20T23:46:27.717Z,12.00
2017-08-20T23:48:55.174Z,11.80
2017-08-20T23:51:22.634Z,11.80
2017-08-20T23:53:50.097Z,11.90
2017-08-20T23:56:17.541Z,11.90
2017-08-20T23:58:45.005Z,12.10
